sensor_id;sensor_type;location;lat;lon;timestamp;temperature;humidity
4354;DHT22;11018;51.258;6.806;2022-11-14T00:00:26;4.90;99.90
4354;DHT22;11018;51.258;6.806;2022-11-14T00:02:52;5.20;99.90
4354;DHT22;11018;51.258;6.806;2022-11-14T00:05:19;5.00;99.90
4354;DHT22;11018;51.258;6.806;2022-11-14T00:07:45;4.90;99.90
4354;DHT22;11018;51.258;6.806;2022-11-14T00:10:12;4.80;99.90
4354;DHT22;11018;51.258;6.806;2022-11-14T00:12:38;4.70;99.90
4354;DHT22;11018;51.258;6.806;2022-11-14T00:15:03;4.70;99.90
4354;DHT22;11018;51.258;6.806;2022-11-14T00:17:29;4.70;99.90
4354;DHT22;11018;51.258;6.806;2022-11-14T00:19:55;4.90;99.90
4354;DHT22;11018;51.258;6.806;2022-11-14T00:22:20;4.80;99.90
4354;DHT22;11018;51.258;6.806;2022-11-14T00:24:46;4.80;99.90
4354;DHT22;11018;51.258;6.806;2022-11-14T00:27:11;4.70;99.90
4354;DHT22;11018;51.258;6.806;2022-11-14T00:29:37;4.80;99.90
4354;DHT22;11018;51.258;6.806;2022-11-14T00:32:03;4.80;99.90
4354;DHT22;11018;51.258;6.806;2022-11-14T00:34:28;4.80;99.90
4354;DHT22;11018;51.258;6.806;2022-11-14T00:36:54;4.70;99.90
4354;DHT22;11018;51.258;6.806;2022-11-14T00:39:19;4.80;99.90
4354;DHT22;11018;51.258;6.806;2022-11-14T00:41:45;5.00;99.90
4354;DHT22;11018;51.258;6.806;2022-11-14T00:44:10;5.10;99.90
4354;DHT22;11018;51.258;6.806;2022-11-14T00:46:36;4.90;94.10
4354;DHT22;11018;51.258;6.806;2022-11-14T00:49:03;4.90;96.00
4354;DHT22;11018;51.258;6.806;2022-11-14T00:51:28;4.90;96.00
4354;DHT22;11018;51.258;6.806;2022-11-14T00:53:54;4.90;94.30
4354;DHT22;11018;51.258;6.806;2022-11-14T00:56:20;5.00;91.50
4354;DHT22;11018;51.258;6.806;2022-11-14T00:58:45;5.00;87.90
4354;DHT22;11018;51.258;6.806;2022-11-14T01:01:11;5.10;89.10
4354;DHT22;11018;51.258;6.806;2022-11-14T01:03:36;4.90;87.10
4354;DHT22;11018;51.258;6.806;2022-11-14T01:06:05;4.90;88.50
4354;DHT22;11018;51.258;6.806;2022-11-14T01:08:31;4.90;84.50
4354;DHT22;11018;51.258;6.806;2022-11-14T01:10:57;5.00;84.90
4354;DHT22;11018;51.258;6.806;2022-11-14T01:13:24;5.00;80.20
4354;DHT22;11018;51.258;6.806;2022-11-14T01:15:50;4.80;82.00
4354;DHT22;11018;51.258;6.806;2022-11-14T01:18:19;4.70;85.10
4354;DHT22;11018;51.258;6.806;2022-11-14T01:20:46;4.60;85.80
4354;DHT22;11018;51.258;6.806;2022-11-14T01:23:13;4.50;87.10
4354;DHT22;11018;51.258;6.806;2022-11-14T01:25:40;4.40;88.70
4354;DHT22;11018;51.258;6.806;2022-11-14T01:28:17;4.30;90.40
4354;DHT22;11018;51.258;6.806;2022-11-14T01:30:43;4.30;92.20
4354;DHT22;11018;51.258;6.806;2022-11-14T01:33:09;4.60;89.30
4354;DHT22;11018;51.258;6.806;2022-11-14T01:35:36;4.70;86.20
4354;DHT22;11018;51.258;6.806;2022-11-14T01:38:04;4.80;83.70
4354;DHT22;11018;51.258;6.806;2022-11-14T01:40:31;4.70;83.30
4354;DHT22;11018;51.258;6.806;2022-11-14T01:45:56;4.30;89.80
4354;DHT22;11018;51.258;6.806;2022-11-14T01:53:41;4.10;93.30
4354;DHT22;11018;51.258;6.806;2022-11-14T01:56:09;4.10;94.60
4354;DHT22;11018;51.258;6.806;2022-11-14T01:58:38;4.00;96.60
4354;DHT22;11018;51.258;6.806;2022-11-14T02:01:04;4.00;97.90
4354;DHT22;11018;51.258;6.806;2022-11-14T02:03:30;4.00;99.40
4354;DHT22;11018;51.258;6.806;2022-11-14T02:05:59;4.00;99.60
4354;DHT22;11018;51.258;6.806;2022-11-14T02:08:25;4.00;99.90
4354;DHT22;11018;51.258;6.806;2022-11-14T02:10:50;4.00;99.90
4354;DHT22;11018;51.258;6.806;2022-11-14T02:13:16;3.90;99.90
4354;DHT22;11018;51.258;6.806;2022-11-14T02:15:41;3.90;99.90
4354;DHT22;11018;51.258;6.806;2022-11-14T02:18:07;3.90;99.90
4354;DHT22;11018;51.258;6.806;2022-11-14T02:20:37;3.90;99.90
4354;DHT22;11018;51.258;6.806;2022-11-14T02:23:08;3.90;99.90
4354;DHT22;11018;51.258;6.806;2022-11-14T02:25:33;3.90;99.90
4354;DHT22;11018;51.258;6.806;2022-11-14T02:27:59;3.90;99.90
4354;DHT22;11018;51.258;6.806;2022-11-14T02:30:25;3.80;99.90
4354;DHT22;11018;51.258;6.806;2022-11-14T02:32:51;3.90;99.90
4354;DHT22;11018;51.258;6.806;2022-11-14T02:35:16;3.90;99.90
4354;DHT22;11018;51.258;6.806;2022-11-14T02:37:42;3.90;99.90
4354;DHT22;11018;51.258;6.806;2022-11-14T02:40:08;3.80;99.90
4354;DHT22;11018;51.258;6.806;2022-11-14T02:42:34;3.80;99.90
4354;DHT22;11018;51.258;6.806;2022-11-14T02:44:59;3.70;99.90
4354;DHT22;11018;51.258;6.806;2022-11-14T02:47:25;3.70;99.90
4354;DHT22;11018;51.258;6.806;2022-11-14T02:49:50;3.70;99.90
4354;DHT22;11018;51.258;6.806;2022-11-14T02:52:16;3.80;99.90
4354;DHT22;11018;51.258;6.806;2022-11-14T02:54:42;3.80;99.90
4354;DHT22;11018;51.258;6.806;2022-11-14T02:57:08;3.80;99.90
4354;DHT22;11018;51.258;6.806;2022-11-14T02:59:34;4.00;99.90
4354;DHT22;11018;51.258;6.806;2022-11-14T03:01:59;4.30;98.60
4354;DHT22;11018;51.258;6.806;2022-11-14T03:04:25;4.40;93.50
4354;DHT22;11018;51.258;6.806;2022-11-14T03:06:51;4.20;93.40
4354;DHT22;11018;51.258;6.806;2022-11-14T03:09:16;4.10;93.80
4354;DHT22;11018;51.258;6.806;2022-11-14T03:11:42;3.90;94.90
4354;DHT22;11018;51.258;6.806;2022-11-14T03:14:08;3.90;96.80
4354;DHT22;11018;51.258;6.806;2022-11-14T03:16:33;3.80;98.70
4354;DHT22;11018;51.258;6.806;2022-11-14T03:18:59;3.80;99.50
4354;DHT22;11018;51.258;6.806;2022-11-14T03:21:25;3.80;99.90
4354;DHT22;11018;51.258;6.806;2022-11-14T03:23:50;3.70;99.90
4354;DHT22;11018;51.258;6.806;2022-11-14T03:26:16;3.70;99.90
4354;DHT22;11018;51.258;6.806;2022-11-14T03:28:42;3.70;99.90
4354;DHT22;11018;51.258;6.806;2022-11-14T03:31:09;3.70;99.90
4354;DHT22;11018;51.258;6.806;2022-11-14T03:33:35;3.80;99.90
4354;DHT22;11018;51.258;6.806;2022-11-14T03:36:01;3.80;99.90
4354;DHT22;11018;51.258;6.806;2022-11-14T03:38:27;4.00;99.90
4354;DHT22;11018;51.258;6.806;2022-11-14T03:40:53;4.00;98.10
4354;DHT22;11018;51.258;6.806;2022-11-14T03:43:19;3.90;97.40
4354;DHT22;11018;51.258;6.806;2022-11-14T03:45:46;4.00;97.40
4354;DHT22;11018;51.258;6.806;2022-11-14T03:48:12;3.90;96.90
4354;DHT22;11018;51.258;6.806;2022-11-14T03:50:38;4.00;97.10
4354;DHT22;11018;51.258;6.806;2022-11-14T03:53:04;3.90;95.80
4354;DHT22;11018;51.258;6.806;2022-11-14T03:55:30;3.90;98.30
4354;DHT22;11018;51.258;6.806;2022-11-14T03:57:55;4.00;97.50
4354;DHT22;11018;51.258;6.806;2022-11-14T04:00:21;4.00;97.50
4354;DHT22;11018;51.258;6.806;2022-11-14T04:02:46;4.00;97.10
4354;DHT22;11018;51.258;6.806;2022-11-14T04:05:12;4.00;95.60
4354;DHT22;11018;51.258;6.806;2022-11-14T04:07:38;4.10;94.80
4354;DHT22;11018;51.258;6.806;2022-11-14T04:10:05;4.10;93.90
4354;DHT22;11018;51.258;6.806;2022-11-14T04:12:31;4.10;94.50
4354;DHT22;11018;51.258;6.806;2022-11-14T04:14:56;4.10;94.80
4354;DHT22;11018;51.258;6.806;2022-11-14T04:17:22;4.10;95.10
4354;DHT22;11018;51.258;6.806;2022-11-14T04:19:48;4.10;94.60
4354;DHT22;11018;51.258;6.806;2022-11-14T04:22:13;4.10;95.10
4354;DHT22;11018;51.258;6.806;2022-11-14T04:24:39;4.10;96.20
4354;DHT22;11018;51.258;6.806;2022-11-14T04:27:04;4.10;96.10
4354;DHT22;11018;51.258;6.806;2022-11-14T04:29:30;4.20;94.10
4354;DHT22;11018;51.258;6.806;2022-11-14T04:31:55;4.20;93.00
4354;DHT22;11018;51.258;6.806;2022-11-14T04:34:21;4.20;91.90
4354;DHT22;11018;51.258;6.806;2022-11-14T04:36:46;4.20;92.50
4354;DHT22;11018;51.258;6.806;2022-11-14T04:39:16;4.20;93.20
4354;DHT22;11018;51.258;6.806;2022-11-14T04:41:41;4.10;94.00
4354;DHT22;11018;51.258;6.806;2022-11-14T04:44:07;4.10;94.50
4354;DHT22;11018;51.258;6.806;2022-11-14T04:46:32;4.20;94.70
4354;DHT22;11018;51.258;6.806;2022-11-14T04:48:58;4.10;94.60
4354;DHT22;11018;51.258;6.806;2022-11-14T04:51:23;4.10;95.30
4354;DHT22;11018;51.258;6.806;2022-11-14T04:53:49;4.10;95.60
4354;DHT22;11018;51.258;6.806;2022-11-14T04:56:14;4.10;95.90
4354;DHT22;11018;51.258;6.806;2022-11-14T04:58:40;4.00;96.00
4354;DHT22;11018;51.258;6.806;2022-11-14T05:01:09;4.00;96.20
4354;DHT22;11018;51.258;6.806;2022-11-14T05:03:35;4.10;96.80
4354;DHT22;11018;51.258;6.806;2022-11-14T05:06:01;4.10;97.40
4354;DHT22;11018;51.258;6.806;2022-11-14T05:08:27;4.20;94.50
4354;DHT22;11018;51.258;6.806;2022-11-14T05:10:53;4.10;94.80
4354;DHT22;11018;51.258;6.806;2022-11-14T05:13:18;4.20;94.80
4354;DHT22;11018;51.258;6.806;2022-11-14T05:15:44;4.20;95.50
4354;DHT22;11018;51.258;6.806;2022-11-14T05:18:09;4.20;95.50
4354;DHT22;11018;51.258;6.806;2022-11-14T05:20:35;4.20;96.40
4354;DHT22;11018;51.258;6.806;2022-11-14T05:23:01;4.20;95.70
4354;DHT22;11018;51.258;6.806;2022-11-14T05:25:26;4.30;94.80
4354;DHT22;11018;51.258;6.806;2022-11-14T05:27:52;4.40;95.20
4354;DHT22;11018;51.258;6.806;2022-11-14T05:30:17;4.50;94.90
4354;DHT22;11018;51.258;6.806;2022-11-14T05:32:43;4.50;94.70
4354;DHT22;11018;51.258;6.806;2022-11-14T05:35:09;4.50;95.90
4354;DHT22;11018;51.258;6.806;2022-11-14T05:37:34;4.60;94.30
4354;DHT22;11018;51.258;6.806;2022-11-14T05:40:00;4.60;93.20
4354;DHT22;11018;51.258;6.806;2022-11-14T05:42:27;4.50;92.40
4354;DHT22;11018;51.258;6.806;2022-11-14T05:44:52;4.60;92.50
4354;DHT22;11018;51.258;6.806;2022-11-14T05:47:18;4.60;92.80
4354;DHT22;11018;51.258;6.806;2022-11-14T05:49:44;4.90;95.80
4354;DHT22;11018;51.258;6.806;2022-11-14T05:52:10;5.00;93.60
4354;DHT22;11018;51.258;6.806;2022-11-14T05:54:36;5.10;90.60
4354;DHT22;11018;51.258;6.806;2022-11-14T05:57:02;5.10;86.70
4354;DHT22;11018;51.258;6.806;2022-11-14T05:59:27;5.00;86.10
4354;DHT22;11018;51.258;6.806;2022-11-14T06:01:53;4.90;87.20
4354;DHT22;11018;51.258;6.806;2022-11-14T06:04:18;5.20;89.30
4354;DHT22;11018;51.258;6.806;2022-11-14T06:06:44;5.20;84.00
4354;DHT22;11018;51.258;6.806;2022-11-14T06:09:10;5.00;85.00
4354;DHT22;11018;51.258;6.806;2022-11-14T06:11:36;5.00;87.90
4354;DHT22;11018;51.258;6.806;2022-11-14T06:14:02;5.00;87.30
4354;DHT22;11018;51.258;6.806;2022-11-14T06:16:28;5.00;89.20
4354;DHT22;11018;51.258;6.806;2022-11-14T06:18:54;5.00;86.10
4354;DHT22;11018;51.258;6.806;2022-11-14T06:21:22;5.10;86.70
4354;DHT22;11018;51.258;6.806;2022-11-14T06:23:48;5.20;85.30
4354;DHT22;11018;51.258;6.806;2022-11-14T06:28:46;5.00;85.20
4354;DHT22;11018;51.258;6.806;2022-11-14T06:31:12;5.20;84.50
4354;DHT22;11018;51.258;6.806;2022-11-14T06:33:37;5.10;85.70
4354;DHT22;11018;51.258;6.806;2022-11-14T06:36:05;5.30;84.50
4354;DHT22;11018;51.258;6.806;2022-11-14T06:38:33;5.60;78.80
4354;DHT22;11018;51.258;6.806;2022-11-14T06:43:32;5.30;81.90
4354;DHT22;11018;51.258;6.806;2022-11-14T06:45:58;5.30;84.00
4354;DHT22;11018;51.258;6.806;2022-11-14T06:48:23;5.40;82.80
4354;DHT22;11018;51.258;6.806;2022-11-14T06:50:53;5.40;83.30
4354;DHT22;11018;51.258;6.806;2022-11-14T06:53:19;5.30;84.40
4354;DHT22;11018;51.258;6.806;2022-11-14T06:55:58;5.40;87.80
4354;DHT22;11018;51.258;6.806;2022-11-14T06:58:26;5.50;87.30
4354;DHT22;11018;51.258;6.806;2022-11-14T07:00:52;5.40;86.20
4354;DHT22;11018;51.258;6.806;2022-11-14T07:03:17;5.50;87.60
4354;DHT22;11018;51.258;6.806;2022-11-14T07:05:43;5.70;90.20
4354;DHT22;11018;51.258;6.806;2022-11-14T07:08:08;5.80;88.60
4354;DHT22;11018;51.258;6.806;2022-11-14T07:10:34;6.00;88.70
4354;DHT22;11018;51.258;6.806;2022-11-14T07:13:00;6.00;85.20
4354;DHT22;11018;51.258;6.806;2022-11-14T07:15:25;6.20;83.50
4354;DHT22;11018;51.258;6.806;2022-11-14T07:17:51;6.50;83.30
4354;DHT22;11018;51.258;6.806;2022-11-14T07:20:16;6.70;78.40
4354;DHT22;11018;51.258;6.806;2022-11-14T07:22:45;6.70;76.10
4354;DHT22;11018;51.258;6.806;2022-11-14T07:25:12;6.60;72.80
4354;DHT22;11018;51.258;6.806;2022-11-14T07:27:37;6.60;71.60
4354;DHT22;11018;51.258;6.806;2022-11-14T07:30:03;6.80;71.30
4354;DHT22;11018;51.258;6.806;2022-11-14T07:32:29;6.70;70.30
4354;DHT22;11018;51.258;6.806;2022-11-14T07:34:54;6.80;72.70
4354;DHT22;11018;51.258;6.806;2022-11-14T07:37:20;6.80;71.10
4354;DHT22;11018;51.258;6.806;2022-11-14T07:39:46;6.80;70.60
4354;DHT22;11018;51.258;6.806;2022-11-14T07:42:11;6.70;69.60
4354;DHT22;11018;51.258;6.806;2022-11-14T07:44:37;6.80;68.90
4354;DHT22;11018;51.258;6.806;2022-11-14T07:47:02;6.80;69.50
4354;DHT22;11018;51.258;6.806;2022-11-14T07:49:28;6.80;71.60
4354;DHT22;11018;51.258;6.806;2022-11-14T07:51:53;6.90;71.70
4354;DHT22;11018;51.258;6.806;2022-11-14T07:54:19;6.90;69.00
4354;DHT22;11018;51.258;6.806;2022-11-14T07:56:45;6.90;69.90
4354;DHT22;11018;51.258;6.806;2022-11-14T07:59:10;6.90;70.00
4354;DHT22;11018;51.258;6.806;2022-11-14T08:01:36;7.00;67.60
4354;DHT22;11018;51.258;6.806;2022-11-14T08:04:01;6.90;66.70
4354;DHT22;11018;51.258;6.806;2022-11-14T08:06:27;7.00;67.20
4354;DHT22;11018;51.258;6.806;2022-11-14T08:08:53;7.00;68.90
4354;DHT22;11018;51.258;6.806;2022-11-14T08:11:18;7.30;65.50
4354;DHT22;11018;51.258;6.806;2022-11-14T08:14:04;7.40;65.80
4354;DHT22;11018;51.258;6.806;2022-11-14T08:16:29;7.50;64.50
4354;DHT22;11018;51.258;6.806;2022-11-14T08:18:55;7.60;64.10
4354;DHT22;11018;51.258;6.806;2022-11-14T08:21:21;7.80;64.50
4354;DHT22;11018;51.258;6.806;2022-11-14T08:23:46;7.90;64.80
4354;DHT22;11018;51.258;6.806;2022-11-14T08:26:12;8.00;63.60
4354;DHT22;11018;51.258;6.806;2022-11-14T08:28:37;8.20;61.70
4354;DHT22;11018;51.258;6.806;2022-11-14T08:31:03;8.30;61.40
4354;DHT22;11018;51.258;6.806;2022-11-14T08:33:30;8.40;61.50
4354;DHT22;11018;51.258;6.806;2022-11-14T08:35:59;8.40;60.80
4354;DHT22;11018;51.258;6.806;2022-11-14T08:38:25;8.50;59.20
4354;DHT22;11018;51.258;6.806;2022-11-14T08:40:51;8.70;58.50
4354;DHT22;11018;51.258;6.806;2022-11-14T08:43:16;8.80;56.70
4354;DHT22;11018;51.258;6.806;2022-11-14T08:45:42;8.90;54.50
4354;DHT22;11018;51.258;6.806;2022-11-14T08:48:08;8.90;54.00
4354;DHT22;11018;51.258;6.806;2022-11-14T08:50:34;8.80;55.30
4354;DHT22;11018;51.258;6.806;2022-11-14T08:52:59;8.90;55.10
4354;DHT22;11018;51.258;6.806;2022-11-14T08:55:25;8.80;53.40
4354;DHT22;11018;51.258;6.806;2022-11-14T08:57:52;8.90;54.70
4354;DHT22;11018;51.258;6.806;2022-11-14T09:00:18;8.90;53.70
4354;DHT22;11018;51.258;6.806;2022-11-14T09:02:43;8.90;54.00
4354;DHT22;11018;51.258;6.806;2022-11-14T09:05:09;9.00;54.40
4354;DHT22;11018;51.258;6.806;2022-11-14T09:07:35;9.20;53.20
4354;DHT22;11018;51.258;6.806;2022-11-14T09:10:01;9.10;53.20
4354;DHT22;11018;51.258;6.806;2022-11-14T09:12:26;9.20;54.00
4354;DHT22;11018;51.258;6.806;2022-11-14T09:14:52;9.20;54.40
4354;DHT22;11018;51.258;6.806;2022-11-14T09:17:17;9.10;54.30
4354;DHT22;11018;51.258;6.806;2022-11-14T09:19:43;9.10;54.50
4354;DHT22;11018;51.258;6.806;2022-11-14T09:22:08;9.10;55.20
4354;DHT22;11018;51.258;6.806;2022-11-14T09:24:34;9.20;54.80
4354;DHT22;11018;51.258;6.806;2022-11-14T09:26:59;9.20;54.70
4354;DHT22;11018;51.258;6.806;2022-11-14T09:29:25;9.20;53.30
4354;DHT22;11018;51.258;6.806;2022-11-14T09:31:51;9.20;53.70
4354;DHT22;11018;51.258;6.806;2022-11-14T09:34:17;9.10;54.20
4354;DHT22;11018;51.258;6.806;2022-11-14T09:36:43;9.10;53.70
4354;DHT22;11018;51.258;6.806;2022-11-14T09:39:08;9.20;52.80
4354;DHT22;11018;51.258;6.806;2022-11-14T09:44:18;9.20;54.40
4354;DHT22;11018;51.258;6.806;2022-11-14T09:46:47;9.10;55.50
4354;DHT22;11018;51.258;6.806;2022-11-14T09:49:22;9.20;53.40
4354;DHT22;11018;51.258;6.806;2022-11-14T09:51:54;9.30;53.30
4354;DHT22;11018;51.258;6.806;2022-11-14T09:54:23;9.20;53.30
4354;DHT22;11018;51.258;6.806;2022-11-14T09:56:49;9.20;53.30
4354;DHT22;11018;51.258;6.806;2022-11-14T09:59:15;9.30;53.40
4354;DHT22;11018;51.258;6.806;2022-11-14T10:04:42;9.50;54.70
4354;DHT22;11018;51.258;6.806;2022-11-14T10:13:07;9.70;52.30
4354;DHT22;11018;51.258;6.806;2022-11-14T10:15:50;9.70;50.50
4354;DHT22;11018;51.258;6.806;2022-11-14T10:20:53;9.70;53.50
4354;DHT22;11018;51.258;6.806;2022-11-14T10:23:26;9.70;53.00
4354;DHT22;11018;51.258;6.806;2022-11-14T10:26:14;9.70;55.30
4354;DHT22;11018;51.258;6.806;2022-11-14T10:31:46;9.70;52.50
4354;DHT22;11018;51.258;6.806;2022-11-14T10:34:31;9.80;52.60
4354;DHT22;11018;51.258;6.806;2022-11-14T10:37:50;9.90;52.10
4354;DHT22;11018;51.258;6.806;2022-11-14T10:42:51;10.20;50.00
4354;DHT22;11018;51.258;6.806;2022-11-14T10:47:59;10.50;47.60
4354;DHT22;11018;51.258;6.806;2022-11-14T10:50:51;10.40;47.80
4354;DHT22;11018;51.258;6.806;2022-11-14T10:55:52;10.50;47.70
4354;DHT22;11018;51.258;6.806;2022-11-14T10:58:20;10.50;47.30
4354;DHT22;11018;51.258;6.806;2022-11-14T11:00:47;10.60;46.90
4354;DHT22;11018;51.258;6.806;2022-11-14T11:03:12;10.60;47.80
4354;DHT22;11018;51.258;6.806;2022-11-14T11:05:50;10.60;48.80
4354;DHT22;11018;51.258;6.806;2022-11-14T11:08:20;10.70;47.60
4354;DHT22;11018;51.258;6.806;2022-11-14T11:11:11;10.60;47.20
4354;DHT22;11018;51.258;6.806;2022-11-14T11:13:57;10.60;46.60
4354;DHT22;11018;51.258;6.806;2022-11-14T11:16:25;10.60;47.30
4354;DHT22;11018;51.258;6.806;2022-11-14T11:18:51;10.50;48.40
4354;DHT22;11018;51.258;6.806;2022-11-14T11:21:19;10.70;49.70
4354;DHT22;11018;51.258;6.806;2022-11-14T11:23:50;10.80;47.60
4354;DHT22;11018;51.258;6.806;2022-11-14T11:26:21;10.90;48.50
4354;DHT22;11018;51.258;6.806;2022-11-14T11:31:53;11.10;45.50
4354;DHT22;11018;51.258;6.806;2022-11-14T11:34:37;11.20;42.70
4354;DHT22;11018;51.258;6.806;2022-11-14T11:37:19;11.30;43.90
4354;DHT22;11018;51.258;6.806;2022-11-14T11:39:53;11.40;44.80
4354;DHT22;11018;51.258;6.806;2022-11-14T11:42:23;11.40;43.50
4354;DHT22;11018;51.258;6.806;2022-11-14T11:44:54;11.50;43.00
4354;DHT22;11018;51.258;6.806;2022-11-14T11:47:23;11.60;42.40
4354;DHT22;11018;51.258;6.806;2022-11-14T11:49:51;11.40;42.50
4354;DHT22;11018;51.258;6.806;2022-11-14T11:52:29;11.40;43.90
4354;DHT22;11018;51.258;6.806;2022-11-14T11:57:47;11.20;43.50
4354;DHT22;11018;51.258;6.806;2022-11-14T12:00:18;11.00;43.70
4354;DHT22;11018;51.258;6.806;2022-11-14T12:02:50;11.10;44.10
4354;DHT22;11018;51.258;6.806;2022-11-14T12:08:05;11.30;43.20
4354;DHT22;11018;51.258;6.806;2022-11-14T12:10:40;11.30;43.80
4354;DHT22;11018;51.258;6.806;2022-11-14T12:31:26;11.50;42.20
4354;DHT22;11018;51.258;6.806;2022-11-14T12:33:56;11.70;42.50
4354;DHT22;11018;51.258;6.806;2022-11-14T12:36:29;11.80;42.10
4354;DHT22;11018;51.258;6.806;2022-11-14T12:38:55;12.00;40.30
4354;DHT22;11018;51.258;6.806;2022-11-14T12:41:29;12.00;39.30
4354;DHT22;11018;51.258;6.806;2022-11-14T13:00:24;12.10;40.50
4354;DHT22;11018;51.258;6.806;2022-11-14T13:11:36;11.70;42.00
4354;DHT22;11018;51.258;6.806;2022-11-14T13:14:23;11.70;42.50
4354;DHT22;11018;51.258;6.806;2022-11-14T13:17:23;11.70;42.90
4354;DHT22;11018;51.258;6.806;2022-11-14T13:20:33;11.70;43.40
4354;DHT22;11018;51.258;6.806;2022-11-14T13:39:21;11.10;48.30
4354;DHT22;11018;51.258;6.806;2022-11-14T13:47:19;10.90;51.00
4354;DHT22;11018;51.258;6.806;2022-11-14T13:50:12;10.80;50.80
4354;DHT22;11018;51.258;6.806;2022-11-14T13:52:41;10.90;50.20
4354;DHT22;11018;51.258;6.806;2022-11-14T13:55:18;10.90;50.50
4354;DHT22;11018;51.258;6.806;2022-11-14T14:01:07;10.80;49.30
4354;DHT22;11018;51.258;6.806;2022-11-14T14:03:57;10.80;49.60
4354;DHT22;11018;51.258;6.806;2022-11-14T14:06:36;10.70;49.40
4354;DHT22;11018;51.258;6.806;2022-11-14T14:09:14;10.70;50.30
4354;DHT22;11018;51.258;6.806;2022-11-14T14:14:50;10.70;51.70
4354;DHT22;11018;51.258;6.806;2022-11-14T14:17:31;10.70;51.40
4354;DHT22;11018;51.258;6.806;2022-11-14T14:23:30;10.70;51.00
4354;DHT22;11018;51.258;6.806;2022-11-14T14:29:03;10.70;51.20
4354;DHT22;11018;51.258;6.806;2022-11-14T14:31:38;10.80;50.10
4354;DHT22;11018;51.258;6.806;2022-11-14T14:34:22;10.80;49.90
4354;DHT22;11018;51.258;6.806;2022-11-14T14:36:51;10.80;50.50
4354;DHT22;11018;51.258;6.806;2022-11-14T14:39:20;10.80;50.20
4354;DHT22;11018;51.258;6.806;2022-11-14T14:41:47;10.80;50.50
4354;DHT22;11018;51.258;6.806;2022-11-14T14:46:42;10.90;49.20
4354;DHT22;11018;51.258;6.806;2022-11-14T14:49:07;10.90;50.90
4354;DHT22;11018;51.258;6.806;2022-11-14T14:51:35;10.80;50.30
4354;DHT22;11018;51.258;6.806;2022-11-14T14:54:02;10.80;51.90
4354;DHT22;11018;51.258;6.806;2022-11-14T14:56:28;10.80;51.10
4354;DHT22;11018;51.258;6.806;2022-11-14T14:58:54;10.70;51.20
4354;DHT22;11018;51.258;6.806;2022-11-14T15:01:31;10.70;51.60
4354;DHT22;11018;51.258;6.806;2022-11-14T15:04:08;10.70;50.90
4354;DHT22;11018;51.258;6.806;2022-11-14T15:06:38;10.60;52.20
4354;DHT22;11018;51.258;6.806;2022-11-14T15:09:08;10.60;52.20
4354;DHT22;11018;51.258;6.806;2022-11-14T15:11:36;10.50;52.50
4354;DHT22;11018;51.258;6.806;2022-11-14T15:14:04;10.60;52.70
4354;DHT22;11018;51.258;6.806;2022-11-14T15:16:31;10.50;53.90
4354;DHT22;11018;51.258;6.806;2022-11-14T15:18:57;10.50;53.80
4354;DHT22;11018;51.258;6.806;2022-11-14T15:21:26;10.40;54.20
4354;DHT22;11018;51.258;6.806;2022-11-14T15:26:39;10.50;54.20
4354;DHT22;11018;51.258;6.806;2022-11-14T15:29:22;10.50;54.30
4354;DHT22;11018;51.258;6.806;2022-11-14T15:31:51;10.50;54.90
4354;DHT22;11018;51.258;6.806;2022-11-14T15:34:31;10.40;54.20
4354;DHT22;11018;51.258;6.806;2022-11-14T15:39:35;10.30;56.60
4354;DHT22;11018;51.258;6.806;2022-11-14T15:42:30;10.40;55.60
4354;DHT22;11018;51.258;6.806;2022-11-14T15:44:56;10.40;55.30
4354;DHT22;11018;51.258;6.806;2022-11-14T15:47:56;10.40;56.30
4354;DHT22;11018;51.258;6.806;2022-11-14T15:52:47;10.30;55.80
4354;DHT22;11018;51.258;6.806;2022-11-14T15:55:16;10.30;57.10
4354;DHT22;11018;51.258;6.806;2022-11-14T15:57:42;10.20;57.50
4354;DHT22;11018;51.258;6.806;2022-11-14T16:00:12;10.10;57.80
4354;DHT22;11018;51.258;6.806;2022-11-14T16:02:48;10.10;59.10
4354;DHT22;11018;51.258;6.806;2022-11-14T16:05:16;10.20;59.40
4354;DHT22;11018;51.258;6.806;2022-11-14T16:07:41;10.10;59.30
4354;DHT22;11018;51.258;6.806;2022-11-14T16:10:26;10.20;58.80
4354;DHT22;11018;51.258;6.806;2022-11-14T16:12:52;10.20;59.30
4354;DHT22;11018;51.258;6.806;2022-11-14T16:15:19;10.20;59.00
4354;DHT22;11018;51.258;6.806;2022-11-14T16:17:47;10.20;58.40
4354;DHT22;11018;51.258;6.806;2022-11-14T16:20:17;10.10;59.10
4354;DHT22;11018;51.258;6.806;2022-11-14T16:22:44;10.10;60.30
4354;DHT22;11018;51.258;6.806;2022-11-14T16:25:32;10.20;59.40
4354;DHT22;11018;51.258;6.806;2022-11-14T16:27:57;10.20;58.50
4354;DHT22;11018;51.258;6.806;2022-11-14T16:30:24;10.00;60.10
4354;DHT22;11018;51.258;6.806;2022-11-14T16:32:50;10.10;61.90
4354;DHT22;11018;51.258;6.806;2022-11-14T16:35:19;10.00;61.10
4354;DHT22;11018;51.258;6.806;2022-11-14T16:37:45;10.00;61.20
4354;DHT22;11018;51.258;6.806;2022-11-14T16:40:13;10.10;61.60
4354;DHT22;11018;51.258;6.806;2022-11-14T16:42:39;10.10;60.90
4354;DHT22;11018;51.258;6.806;2022-11-14T16:45:06;10.10;60.90
4354;DHT22;11018;51.258;6.806;2022-11-14T16:47:31;10.10;60.90
4354;DHT22;11018;51.258;6.806;2022-11-14T16:49:57;10.00;61.80
4354;DHT22;11018;51.258;6.806;2022-11-14T16:52:23;10.00;62.40
4354;DHT22;11018;51.258;6.806;2022-11-14T16:54:49;10.00;63.00
4354;DHT22;11018;51.258;6.806;2022-11-14T16:57:14;10.00;61.60
4354;DHT22;11018;51.258;6.806;2022-11-14T16:59:40;10.10;62.10
4354;DHT22;11018;51.258;6.806;2022-11-14T17:02:06;10.20;61.90
4354;DHT22;11018;51.258;6.806;2022-11-14T17:04:31;10.10;60.50
4354;DHT22;11018;51.258;6.806;2022-11-14T17:06:57;10.10;60.60
4354;DHT22;11018;51.258;6.806;2022-11-14T17:09:22;10.00;61.30
4354;DHT22;11018;51.258;6.806;2022-11-14T17:11:48;10.00;61.80
4354;DHT22;11018;51.258;6.806;2022-11-14T17:14:13;10.10;60.60
4354;DHT22;11018;51.258;6.806;2022-11-14T17:16:39;10.10;60.80
4354;DHT22;11018;51.258;6.806;2022-11-14T17:19:04;10.00;60.20
4354;DHT22;11018;51.258;6.806;2022-11-14T17:21:30;10.00;60.90
4354;DHT22;11018;51.258;6.806;2022-11-14T17:23:58;10.00;60.60
4354;DHT22;11018;51.258;6.806;2022-11-14T17:26:27;10.00;60.30
4354;DHT22;11018;51.258;6.806;2022-11-14T17:28:53;10.00;60.60
4354;DHT22;11018;51.258;6.806;2022-11-14T17:31:19;10.00;61.10
4354;DHT22;11018;51.258;6.806;2022-11-14T17:33:53;10.00;61.30
4354;DHT22;11018;51.258;6.806;2022-11-14T17:36:19;10.00;62.50
4354;DHT22;11018;51.258;6.806;2022-11-14T17:38:45;10.00;63.50
4354;DHT22;11018;51.258;6.806;2022-11-14T17:41:11;10.00;61.60
4354;DHT22;11018;51.258;6.806;2022-11-14T17:43:36;10.00;61.80
4354;DHT22;11018;51.258;6.806;2022-11-14T17:46:22;10.10;62.20
4354;DHT22;11018;51.258;6.806;2022-11-14T17:48:48;10.00;61.80
4354;DHT22;11018;51.258;6.806;2022-11-14T17:51:14;10.10;62.40
4354;DHT22;11018;51.258;6.806;2022-11-14T17:53:41;10.00;62.50
4354;DHT22;11018;51.258;6.806;2022-11-14T17:56:12;10.00;62.30
4354;DHT22;11018;51.258;6.806;2022-11-14T17:58:37;10.00;62.80
4354;DHT22;11018;51.258;6.806;2022-11-14T18:01:11;10.00;63.10
4354;DHT22;11018;51.258;6.806;2022-11-14T18:03:38;10.00;63.20
4354;DHT22;11018;51.258;6.806;2022-11-14T18:06:17;10.00;63.30
4354;DHT22;11018;51.258;6.806;2022-11-14T18:08:46;10.10;62.40
4354;DHT22;11018;51.258;6.806;2022-11-14T18:11:13;10.00;62.90
4354;DHT22;11018;51.258;6.806;2022-11-14T18:13:39;10.00;62.10
4354;DHT22;11018;51.258;6.806;2022-11-14T18:16:10;10.10;62.20